sensor_id;sensor_type;location;lat;lon;timestamp;P1;durP1;ratioP1;P2;durP2;ratioP2
4309;SDS011;2168;53.576;9.980;2023-01-16T00:00:03;3.60;;;3.30;;
4309;SDS011;2168;53.576;9.980;2023-01-16T00:03:28;4.47;;;3.60;;
4309;SDS011;2168;53.576;9.980;2023-01-16T00:06:52;3.50;;;3.30;;
4309;SDS011;2168;53.576;9.980;2023-01-16T00:10:16;4.13;;;3.77;;
4309;SDS011;2168;53.576;9.980;2023-01-16T00:13:40;4.23;;;3.77;;
4309;SDS011;2168;53.576;9.980;2023-01-16T00:17:03;4.70;;;3.87;;
4309;SDS011;2168;53.576;9.980;2023-01-16T00:20:27;4.43;;;3.53;;
4309;SDS011;2168;53.576;9.980;2023-01-16T00:23:55;8.57;;;3.90;;
4309;SDS011;2168;53.576;9.980;2023-01-16T00:27:19;6.70;;;4.03;;
4309;SDS011;2168;53.576;9.980;2023-01-16T00:30:43;5.13;;;3.80;;
4309;SDS011;2168;53.576;9.980;2023-01-16T00:34:08;4.20;;;3.60;;
4309;SDS011;2168;53.576;9.980;2023-01-16T00:37:31;5.67;;;4.20;;
4309;SDS011;2168;53.576;9.980;2023-01-16T00:40:57;4.07;;;3.77;;
4309;SDS011;2168;53.576;9.980;2023-01-16T00:44:21;5.87;;;3.57;;
4309;SDS011;2168;53.576;9.980;2023-01-16T00:47:45;7.20;;;3.57;;
4309;SDS011;2168;53.576;9.980;2023-01-16T00:51:09;6.37;;;3.60;;
4309;SDS011;2168;53.576;9.980;2023-01-16T00:54:32;4.13;;;3.23;;
4309;SDS011;2168;53.576;9.980;2023-01-16T00:58:00;5.13;;;3.07;;
4309;SDS011;2168;53.576;9.980;2023-01-16T01:01:24;3.90;;;2.80;;
4309;SDS011;2168;53.576;9.980;2023-01-16T01:04:48;5.60;;;2.80;;
4309;SDS011;2168;53.576;9.980;2023-01-16T01:08:12;8.30;;;3.20;;
4309;SDS011;2168;53.576;9.980;2023-01-16T01:11:35;5.40;;;2.70;;
4309;SDS011;2168;53.576;9.980;2023-01-16T01:14:59;4.40;;;2.53;;
4309;SDS011;2168;53.576;9.980;2023-01-16T01:18:23;2.80;;;2.60;;
4309;SDS011;2168;53.576;9.980;2023-01-16T01:21:47;6.97;;;3.30;;
4309;SDS011;2168;53.576;9.980;2023-01-16T01:25:11;3.63;;;3.00;;
4309;SDS011;2168;53.576;9.980;2023-01-16T01:28:39;3.00;;;2.80;;
4309;SDS011;2168;53.576;9.980;2023-01-16T01:32:03;4.73;;;3.30;;
4309;SDS011;2168;53.576;9.980;2023-01-16T01:35:27;3.20;;;2.80;;
4309;SDS011;2168;53.576;9.980;2023-01-16T01:38:51;5.70;;;3.30;;
4309;SDS011;2168;53.576;9.980;2023-01-16T01:42:15;4.43;;;3.17;;
4309;SDS011;2168;53.576;9.980;2023-01-16T01:45:39;3.73;;;2.97;;
4309;SDS011;2168;53.576;9.980;2023-01-16T01:49:27;3.43;;;2.60;;
4309;SDS011;2168;53.576;9.980;2023-01-16T01:52:52;3.47;;;2.50;;
4309;SDS011;2168;53.576;9.980;2023-01-16T01:57:02;2.40;;;1.90;;
4309;SDS011;2168;53.576;9.980;2023-01-16T02:00:12;4.10;;;2.07;;
4309;SDS011;2168;53.576;9.980;2023-01-16T02:03:39;4.43;;;2.10;;
4309;SDS011;2168;53.576;9.980;2023-01-16T02:07:05;5.17;;;2.30;;
4309;SDS011;2168;53.576;9.980;2023-01-16T02:14:04;5.70;;;2.30;;
4309;SDS011;2168;53.576;9.980;2023-01-16T02:17:29;4.70;;;1.50;;
4309;SDS011;2168;53.576;9.980;2023-01-16T02:21:33;3.70;;;1.77;;
4309;SDS011;2168;53.576;9.980;2023-01-16T02:32:25;6.10;;;2.40;;
4309;SDS011;2168;53.576;9.980;2023-01-16T02:40:16;2.63;;;1.30;;
4309;SDS011;2168;53.576;9.980;2023-01-16T02:55:57;2.20;;;1.40;;
4309;SDS011;2168;53.576;9.980;2023-01-16T02:59:30;4.53;;;1.30;;
4309;SDS011;2168;53.576;9.980;2023-01-16T03:02:55;2.10;;;1.67;;
4309;SDS011;2168;53.576;9.980;2023-01-16T03:10:07;4.00;;;1.40;;
4309;SDS011;2168;53.576;9.980;2023-01-16T03:17:26;5.23;;;1.20;;
4309;SDS011;2168;53.576;9.980;2023-01-16T03:21:14;3.60;;;1.30;;
4309;SDS011;2168;53.576;9.980;2023-01-16T03:32:10;3.87;;;1.57;;
4309;SDS011;2168;53.576;9.980;2023-01-16T03:35:48;1.87;;;1.67;;
4309;SDS011;2168;53.576;9.980;2023-01-16T03:39:17;1.43;;;1.40;;
4309;SDS011;2168;53.576;9.980;2023-01-16T03:42:54;3.43;;;1.70;;
4309;SDS011;2168;53.576;9.980;2023-01-16T03:46:24;2.30;;;1.40;;
4309;SDS011;2168;53.576;9.980;2023-01-16T03:49:55;2.40;;;1.50;;
4309;SDS011;2168;53.576;9.980;2023-01-16T03:53:23;3.60;;;1.50;;
4309;SDS011;2168;53.576;9.980;2023-01-16T03:57:09;4.53;;;1.80;;
4309;SDS011;2168;53.576;9.980;2023-01-16T04:00:43;2.70;;;1.50;;
4309;SDS011;2168;53.576;9.980;2023-01-16T04:07:48;3.17;;;1.23;;
4309;SDS011;2168;53.576;9.980;2023-01-16T04:11:12;2.30;;;1.47;;
4309;SDS011;2168;53.576;9.980;2023-01-16T04:14:39;6.33;;;2.03;;
4309;SDS011;2168;53.576;9.980;2023-01-16T04:18:05;2.17;;;1.40;;
4309;SDS011;2168;53.576;9.980;2023-01-16T04:21:29;2.23;;;1.30;;
4309;SDS011;2168;53.576;9.980;2023-01-16T04:24:55;5.53;;;1.73;;
4309;SDS011;2168;53.576;9.980;2023-01-16T04:28:18;1.53;;;1.30;;
4309;SDS011;2168;53.576;9.980;2023-01-16T04:31:42;4.57;;;1.40;;
4309;SDS011;2168;53.576;9.980;2023-01-16T04:35:07;2.10;;;1.20;;
4309;SDS011;2168;53.576;9.980;2023-01-16T04:38:31;2.63;;;1.50;;
4309;SDS011;2168;53.576;9.980;2023-01-16T04:41:55;1.73;;;1.20;;
4309;SDS011;2168;53.576;9.980;2023-01-16T04:45:20;2.60;;;1.20;;
4309;SDS011;2168;53.576;9.980;2023-01-16T04:48:44;3.17;;;1.20;;
4309;SDS011;2168;53.576;9.980;2023-01-16T04:52:08;5.30;;;1.50;;
4309;SDS011;2168;53.576;9.980;2023-01-16T04:55:32;3.50;;;1.10;;
4309;SDS011;2168;53.576;9.980;2023-01-16T04:58:56;4.83;;;1.87;;
4309;SDS011;2168;53.576;9.980;2023-01-16T05:02:20;1.30;;;1.20;;
4309;SDS011;2168;53.576;9.980;2023-01-16T05:05:44;4.70;;;1.30;;
4309;SDS011;2168;53.576;9.980;2023-01-16T05:09:08;1.37;;;1.10;;
4309;SDS011;2168;53.576;9.980;2023-01-16T05:12:32;4.87;;;1.00;;
4309;SDS011;2168;53.576;9.980;2023-01-16T05:15:56;3.30;;;1.40;;
4309;SDS011;2168;53.576;9.980;2023-01-16T05:19:20;1.23;;;0.90;;
4309;SDS011;2168;53.576;9.980;2023-01-16T05:22:44;1.70;;;1.50;;
4309;SDS011;2168;53.576;9.980;2023-01-16T05:26:08;3.70;;;1.20;;
4309;SDS011;2168;53.576;9.980;2023-01-16T05:29:31;2.73;;;1.10;;
4309;SDS011;2168;53.576;9.980;2023-01-16T05:32:55;3.97;;;1.40;;
4309;SDS011;2168;53.576;9.980;2023-01-16T05:36:19;3.67;;;1.63;;
4309;SDS011;2168;53.576;9.980;2023-01-16T05:39:43;4.53;;;1.07;;
4309;SDS011;2168;53.576;9.980;2023-01-16T05:43:10;2.50;;;0.90;;
4309;SDS011;2168;53.576;9.980;2023-01-16T05:46:34;2.97;;;1.10;;
4309;SDS011;2168;53.576;9.980;2023-01-16T05:49:58;3.87;;;1.20;;
4309;SDS011;2168;53.576;9.980;2023-01-16T05:53:22;4.37;;;1.03;;
4309;SDS011;2168;53.576;9.980;2023-01-16T05:56:46;5.47;;;1.33;;
4309;SDS011;2168;53.576;9.980;2023-01-16T06:00:10;4.20;;;1.53;;
4309;SDS011;2168;53.576;9.980;2023-01-16T06:03:34;1.90;;;1.10;;
4309;SDS011;2168;53.576;9.980;2023-01-16T06:06:58;5.77;;;1.10;;
4309;SDS011;2168;53.576;9.980;2023-01-16T06:10:22;8.40;;;1.20;;
4309;SDS011;2168;53.576;9.980;2023-01-16T06:13:46;1.47;;;1.20;;
4309;SDS011;2168;53.576;9.980;2023-01-16T06:17:11;0.97;;;0.97;;
4309;SDS011;2168;53.576;9.980;2023-01-16T06:20:35;1.60;;;0.97;;
4309;SDS011;2168;53.576;9.980;2023-01-16T06:23:59;0.90;;;0.90;;
4309;SDS011;2168;53.576;9.980;2023-01-16T06:27:23;10.83;;;1.13;;
4309;SDS011;2168;53.576;9.980;2023-01-16T06:30:50;5.13;;;1.30;;
4309;SDS011;2168;53.576;9.980;2023-01-16T06:34:14;2.07;;;1.10;;
4309;SDS011;2168;53.576;9.980;2023-01-16T06:37:37;1.23;;;1.17;;
4309;SDS011;2168;53.576;9.980;2023-01-16T06:41:01;1.63;;;1.30;;
4309;SDS011;2168;53.576;9.980;2023-01-16T06:44:28;1.60;;;1.13;;
4309;SDS011;2168;53.576;9.980;2023-01-16T06:47:52;3.47;;;1.10;;
4309;SDS011;2168;53.576;9.980;2023-01-16T06:51:16;1.03;;;0.93;;
4309;SDS011;2168;53.576;9.980;2023-01-16T06:54:40;1.80;;;1.03;;
4309;SDS011;2168;53.576;9.980;2023-01-16T06:58:04;1.27;;;1.10;;
4309;SDS011;2168;53.576;9.980;2023-01-16T07:01:28;3.27;;;1.20;;
4309;SDS011;2168;53.576;9.980;2023-01-16T07:04:52;1.27;;;0.93;;
4309;SDS011;2168;53.576;9.980;2023-01-16T07:08:16;1.27;;;1.20;;
4309;SDS011;2168;53.576;9.980;2023-01-16T07:11:40;1.03;;;0.83;;
4309;SDS011;2168;53.576;9.980;2023-01-16T07:15:04;1.47;;;1.20;;
4309;SDS011;2168;53.576;9.980;2023-01-16T07:18:47;1.33;;;0.80;;
4309;SDS011;2168;53.576;9.980;2023-01-16T07:22:29;5.57;;;1.20;;
4309;SDS011;2168;53.576;9.980;2023-01-16T07:25:55;4.80;;;1.43;;
4309;SDS011;2168;53.576;9.980;2023-01-16T07:29:25;3.07;;;1.50;;
4309;SDS011;2168;53.576;9.980;2023-01-16T07:32:49;1.20;;;1.20;;
4309;SDS011;2168;53.576;9.980;2023-01-16T07:36:13;2.60;;;1.13;;
4309;SDS011;2168;53.576;9.980;2023-01-16T07:39:37;1.80;;;1.20;;
4309;SDS011;2168;53.576;9.980;2023-01-16T07:43:01;6.00;;;1.30;;
4309;SDS011;2168;53.576;9.980;2023-01-16T07:46:25;1.47;;;1.30;;
4309;SDS011;2168;53.576;9.980;2023-01-16T07:49:48;2.70;;;1.20;;
4309;SDS011;2168;53.576;9.980;2023-01-16T07:53:19;2.10;;;1.10;;
4309;SDS011;2168;53.576;9.980;2023-01-16T07:56:43;7.83;;;1.17;;
4309;SDS011;2168;53.576;9.980;2023-01-16T08:00:11;1.23;;;1.07;;
4309;SDS011;2168;53.576;9.980;2023-01-16T08:03:36;2.83;;;1.10;;
4309;SDS011;2168;53.576;9.980;2023-01-16T08:07:00;1.17;;;1.10;;
4309;SDS011;2168;53.576;9.980;2023-01-16T08:10:24;2.70;;;1.33;;
4309;SDS011;2168;53.576;9.980;2023-01-16T08:14:11;3.23;;;1.20;;
4309;SDS011;2168;53.576;9.980;2023-01-16T08:17:37;4.00;;;1.33;;
4309;SDS011;2168;53.576;9.980;2023-01-16T08:21:01;3.13;;;1.20;;
4309;SDS011;2168;53.576;9.980;2023-01-16T08:24:25;2.57;;;1.20;;
4309;SDS011;2168;53.576;9.980;2023-01-16T08:27:49;2.87;;;1.00;;
4309;SDS011;2168;53.576;9.980;2023-01-16T08:31:14;0.90;;;0.90;;
4309;SDS011;2168;53.576;9.980;2023-01-16T08:34:37;1.97;;;0.90;;
4309;SDS011;2168;53.576;9.980;2023-01-16T08:38:01;4.37;;;1.17;;
4309;SDS011;2168;53.576;9.980;2023-01-16T08:41:25;1.37;;;1.10;;
4309;SDS011;2168;53.576;9.980;2023-01-16T08:45:11;4.00;;;1.77;;
4309;SDS011;2168;53.576;9.980;2023-01-16T08:48:58;2.57;;;1.10;;
4309;SDS011;2168;53.576;9.980;2023-01-16T08:52:40;1.17;;;1.10;;
4309;SDS011;2168;53.576;9.980;2023-01-16T08:56:05;1.43;;;1.37;;
4309;SDS011;2168;53.576;9.980;2023-01-16T08:59:30;3.40;;;1.10;;
4309;SDS011;2168;53.576;9.980;2023-01-16T09:02:54;2.03;;;1.43;;
4309;SDS011;2168;53.576;9.980;2023-01-16T09:06:18;2.30;;;1.47;;
4309;SDS011;2168;53.576;9.980;2023-01-16T09:09:42;1.20;;;1.10;;
4309;SDS011;2168;53.576;9.980;2023-01-16T09:13:25;2.40;;;1.37;;
4309;SDS011;2168;53.576;9.980;2023-01-16T09:16:49;2.53;;;1.20;;
4309;SDS011;2168;53.576;9.980;2023-01-16T09:20:13;4.73;;;1.37;;
4309;SDS011;2168;53.576;9.980;2023-01-16T09:23:37;2.60;;;1.10;;
4309;SDS011;2168;53.576;9.980;2023-01-16T09:27:01;3.73;;;1.30;;
4309;SDS011;2168;53.576;9.980;2023-01-16T09:30:26;1.27;;;1.00;;
4309;SDS011;2168;53.576;9.980;2023-01-16T09:33:50;3.90;;;1.23;;
4309;SDS011;2168;53.576;9.980;2023-01-16T09:37:14;3.50;;;1.20;;
4309;SDS011;2168;53.576;9.980;2023-01-16T09:44:43;1.10;;;1.00;;
4309;SDS011;2168;53.576;9.980;2023-01-16T09:48:12;4.30;;;1.40;;
4309;SDS011;2168;53.576;9.980;2023-01-16T09:51:45;1.37;;;0.80;;
4309;SDS011;2168;53.576;9.980;2023-01-16T09:55:32;1.47;;;1.37;;
4309;SDS011;2168;53.576;9.980;2023-01-16T09:59:28;4.40;;;0.90;;
4309;SDS011;2168;53.576;9.980;2023-01-16T10:02:55;3.00;;;1.70;;
4309;SDS011;2168;53.576;9.980;2023-01-16T10:06:30;4.13;;;1.40;;
4309;SDS011;2168;53.576;9.980;2023-01-16T10:14:20;2.30;;;1.30;;
4309;SDS011;2168;53.576;9.980;2023-01-16T10:21:21;2.30;;;1.20;;
4309;SDS011;2168;53.576;9.980;2023-01-16T10:24:58;1.93;;;1.10;;
4309;SDS011;2168;53.576;9.980;2023-01-16T10:32:14;7.13;;;2.10;;
4309;SDS011;2168;53.576;9.980;2023-01-16T10:35:52;2.77;;;1.30;;
4309;SDS011;2168;53.576;9.980;2023-01-16T10:39:17;2.00;;;1.27;;
4309;SDS011;2168;53.576;9.980;2023-01-16T10:43:01;2.50;;;1.93;;
4309;SDS011;2168;53.576;9.980;2023-01-16T10:46:45;1.70;;;1.60;;
4309;SDS011;2168;53.576;9.980;2023-01-16T10:50:28;1.80;;;1.70;;
4309;SDS011;2168;53.576;9.980;2023-01-16T10:53:52;2.90;;;1.20;;
4309;SDS011;2168;53.576;9.980;2023-01-16T10:57:18;4.13;;;1.50;;
4309;SDS011;2168;53.576;9.980;2023-01-16T11:00:52;1.67;;;1.30;;
4309;SDS011;2168;53.576;9.980;2023-01-16T11:04:18;2.03;;;1.30;;
4309;SDS011;2168;53.576;9.980;2023-01-16T11:08:03;4.03;;;1.20;;
4309;SDS011;2168;53.576;9.980;2023-01-16T11:11:36;2.90;;;1.20;;
4309;SDS011;2168;53.576;9.980;2023-01-16T11:15:20;1.83;;;1.13;;
4309;SDS011;2168;53.576;9.980;2023-01-16T11:19:15;1.60;;;1.33;;
4309;SDS011;2168;53.576;9.980;2023-01-16T11:22:43;3.87;;;1.27;;
4309;SDS011;2168;53.576;9.980;2023-01-16T11:26:09;1.80;;;1.70;;
4309;SDS011;2168;53.576;9.980;2023-01-16T11:29:37;4.17;;;1.20;;
4309;SDS011;2168;53.576;9.980;2023-01-16T11:33:11;3.10;;;1.50;;
4309;SDS011;2168;53.576;9.980;2023-01-16T11:36:36;3.73;;;1.73;;
4309;SDS011;2168;53.576;9.980;2023-01-16T11:40:02;3.37;;;1.60;;
4309;SDS011;2168;53.576;9.980;2023-01-16T11:43:29;1.87;;;1.30;;
4309;SDS011;2168;53.576;9.980;2023-01-16T11:47:13;2.23;;;1.63;;
4309;SDS011;2168;53.576;9.980;2023-01-16T11:50:56;4.87;;;2.00;;
4309;SDS011;2168;53.576;9.980;2023-01-16T11:54:27;5.80;;;1.73;;
4309;SDS011;2168;53.576;9.980;2023-01-16T11:58:09;2.23;;;1.83;;
4309;SDS011;2168;53.576;9.980;2023-01-16T12:02:13;2.47;;;1.70;;
4309;SDS011;2168;53.576;9.980;2023-01-16T12:20:57;2.77;;;1.30;;
4309;SDS011;2168;53.576;9.980;2023-01-16T12:24:44;1.30;;;1.20;;
4309;SDS011;2168;53.576;9.980;2023-01-16T12:28:23;3.20;;;1.10;;
4309;SDS011;2168;53.576;9.980;2023-01-16T12:35:59;4.97;;;1.30;;
4309;SDS011;2168;53.576;9.980;2023-01-16T12:39:49;2.50;;;1.50;;
4309;SDS011;2168;53.576;9.980;2023-01-16T12:43:58;1.80;;;1.63;;
4309;SDS011;2168;53.576;9.980;2023-01-16T12:54:51;4.10;;;1.90;;
4309;SDS011;2168;53.576;9.980;2023-01-16T12:58:40;1.23;;;1.17;;
4309;SDS011;2168;53.576;9.980;2023-01-16T13:02:13;4.63;;;1.40;;
4309;SDS011;2168;53.576;9.980;2023-01-16T13:05:42;1.60;;;1.23;;
4309;SDS011;2168;53.576;9.980;2023-01-16T13:13:33;2.10;;;1.20;;
4309;SDS011;2168;53.576;9.980;2023-01-16T13:17:01;2.43;;;1.27;;
4309;SDS011;2168;53.576;9.980;2023-01-16T13:20:29;2.43;;;1.50;;
4309;SDS011;2168;53.576;9.980;2023-01-16T13:23:55;3.37;;;1.30;;
4309;SDS011;2168;53.576;9.980;2023-01-16T13:27:36;1.30;;;1.20;;
4309;SDS011;2168;53.576;9.980;2023-01-16T13:31:11;1.70;;;1.30;;
4309;SDS011;2168;53.576;9.980;2023-01-16T13:34:55;1.13;;;1.13;;
4309;SDS011;2168;53.576;9.980;2023-01-16T13:42:07;5.40;;;1.30;;
4309;SDS011;2168;53.576;9.980;2023-01-16T13:45:52;2.83;;;1.60;;
4309;SDS011;2168;53.576;9.980;2023-01-16T13:49:20;3.57;;;1.20;;
4309;SDS011;2168;53.576;9.980;2023-01-16T13:52:49;1.17;;;1.17;;
4309;SDS011;2168;53.576;9.980;2023-01-16T13:56:24;2.27;;;1.50;;
4309;SDS011;2168;53.576;9.980;2023-01-16T13:59:53;2.80;;;1.50;;
4309;SDS011;2168;53.576;9.980;2023-01-16T14:03:26;4.17;;;2.27;;
4309;SDS011;2168;53.576;9.980;2023-01-16T14:06:56;1.50;;;1.27;;
4309;SDS011;2168;53.576;9.980;2023-01-16T14:14:25;4.93;;;1.57;;
4309;SDS011;2168;53.576;9.980;2023-01-16T14:18:13;2.40;;;1.30;;
4309;SDS011;2168;53.576;9.980;2023-01-16T14:21:43;2.60;;;1.50;;
4309;SDS011;2168;53.576;9.980;2023-01-16T14:25:26;1.90;;;1.10;;
4309;SDS011;2168;53.576;9.980;2023-01-16T14:32:44;1.50;;;1.40;;
4309;SDS011;2168;53.576;9.980;2023-01-16T14:36:09;2.63;;;1.53;;
4309;SDS011;2168;53.576;9.980;2023-01-16T14:39:40;3.13;;;1.27;;
4309;SDS011;2168;53.576;9.980;2023-01-16T14:44:15;3.83;;;1.43;;
4309;SDS011;2168;53.576;9.980;2023-01-16T14:47:56;2.80;;;1.40;;
4309;SDS011;2168;53.576;9.980;2023-01-16T14:51:53;2.03;;;1.73;;
4309;SDS011;2168;53.576;9.980;2023-01-16T14:59:06;2.73;;;1.40;;
4309;SDS011;2168;53.576;9.980;2023-01-16T15:02:44;4.40;;;1.57;;
4309;SDS011;2168;53.576;9.980;2023-01-16T15:06:09;2.23;;;1.50;;
4309;SDS011;2168;53.576;9.980;2023-01-16T15:09:36;1.70;;;1.10;;
4309;SDS011;2168;53.576;9.980;2023-01-16T15:16:50;1.10;;;0.95;;
4309;SDS011;2168;53.576;9.980;2023-01-16T15:20:35;4.53;;;1.30;;
4309;SDS011;2168;53.576;9.980;2023-01-16T15:24:20;2.97;;;1.17;;
4309;SDS011;2168;53.576;9.980;2023-01-16T15:27:46;1.73;;;1.10;;
4309;SDS011;2168;53.576;9.980;2023-01-16T15:31:20;2.87;;;1.30;;
4309;SDS011;2168;53.576;9.980;2023-01-16T15:34:47;1.43;;;1.33;;
4309;SDS011;2168;53.576;9.980;2023-01-16T15:38:21;1.17;;;1.10;;
4309;SDS011;2168;53.576;9.980;2023-01-16T15:42:04;3.33;;;1.57;;
4309;SDS011;2168;53.576;9.980;2023-01-16T15:45:50;2.13;;;1.20;;
4309;SDS011;2168;53.576;9.980;2023-01-16T15:49:31;13.93;;;1.40;;
4309;SDS011;2168;53.576;9.980;2023-01-16T15:53:03;1.20;;;1.10;;
4309;SDS011;2168;53.576;9.980;2023-01-16T15:56:41;4.37;;;1.40;;
4309;SDS011;2168;53.576;9.980;2023-01-16T16:00:20;2.97;;;1.50;;
4309;SDS011;2168;53.576;9.980;2023-01-16T16:03:52;2.70;;;1.20;;
4309;SDS011;2168;53.576;9.980;2023-01-16T16:07:17;4.10;;;1.77;;
4309;SDS011;2168;53.576;9.980;2023-01-16T16:10:42;1.90;;;1.10;;
4309;SDS011;2168;53.576;9.980;2023-01-16T16:14:32;3.20;;;1.57;;
4309;SDS011;2168;53.576;9.980;2023-01-16T16:18:16;3.90;;;1.40;;
4309;SDS011;2168;53.576;9.980;2023-01-16T16:21:56;3.50;;;1.80;;
4309;SDS011;2168;53.576;9.980;2023-01-16T16:28:46;3.63;;;1.87;;
4309;SDS011;2168;53.576;9.980;2023-01-16T16:32:17;4.20;;;1.47;;
4309;SDS011;2168;53.576;9.980;2023-01-16T16:35:41;2.50;;;1.53;;
4309;SDS011;2168;53.576;9.980;2023-01-16T16:39:25;2.30;;;1.57;;
4309;SDS011;2168;53.576;9.980;2023-01-16T16:42:51;5.23;;;1.80;;
4309;SDS011;2168;53.576;9.980;2023-01-16T16:49:50;2.83;;;1.37;;
4309;SDS011;2168;53.576;9.980;2023-01-16T16:53:27;1.73;;;1.43;;
4309;SDS011;2168;53.576;9.980;2023-01-16T16:56:52;1.53;;;1.20;;
4309;SDS011;2168;53.576;9.980;2023-01-16T17:00:17;5.40;;;1.50;;
4309;SDS011;2168;53.576;9.980;2023-01-16T17:03:42;5.23;;;1.80;;
4309;SDS011;2168;53.576;9.980;2023-01-16T17:07:07;2.13;;;1.50;;
4309;SDS011;2168;53.576;9.980;2023-01-16T17:10:31;1.23;;;1.20;;
4309;SDS011;2168;53.576;9.980;2023-01-16T17:13:55;1.70;;;1.27;;
4309;SDS011;2168;53.576;9.980;2023-01-16T17:17:19;2.23;;;1.37;;
4309;SDS011;2168;53.576;9.980;2023-01-16T17:20:43;1.10;;;1.00;;
4309;SDS011;2168;53.576;9.980;2023-01-16T17:24:17;2.30;;;1.03;;
4309;SDS011;2168;53.576;9.980;2023-01-16T17:27:49;1.90;;;1.20;;
4309;SDS011;2168;53.576;9.980;2023-01-16T17:31:15;3.70;;;1.10;;
4309;SDS011;2168;53.576;9.980;2023-01-16T17:34:59;1.40;;;1.30;;
4309;SDS011;2168;53.576;9.980;2023-01-16T17:38:39;1.43;;;1.33;;
4309;SDS011;2168;53.576;9.980;2023-01-16T17:42:04;1.23;;;1.23;;
4309;SDS011;2168;53.576;9.980;2023-01-16T17:45:47;1.50;;;1.40;;
4309;SDS011;2168;53.576;9.980;2023-01-16T17:49:11;5.23;;;1.70;;
4309;SDS011;2168;53.576;9.980;2023-01-16T17:52:46;1.83;;;1.70;;
4309;SDS011;2168;53.576;9.980;2023-01-16T17:56:10;3.10;;;2.10;;
4309;SDS011;2168;53.576;9.980;2023-01-16T17:59:34;4.90;;;2.30;;
4309;SDS011;2168;53.576;9.980;2023-01-16T18:02:59;2.20;;;2.00;;
4309;SDS011;2168;53.576;9.980;2023-01-16T18:06:34;1.37;;;1.27;;
4309;SDS011;2168;53.576;9.980;2023-01-16T18:09:58;2.00;;;1.43;;
4309;SDS011;2168;53.576;9.980;2023-01-16T18:13:45;3.63;;;1.70;;
4309;SDS011;2168;53.576;9.980;2023-01-16T18:17:28;3.00;;;1.77;;
4309;SDS011;2168;53.576;9.980;2023-01-16T18:20:53;3.60;;;1.70;;
4309;SDS011;2168;53.576;9.980;2023-01-16T18:24:27;4.20;;;1.87;;
4309;SDS011;2168;53.576;9.980;2023-01-16T18:27:51;1.87;;;1.60;;
4309;SDS011;2168;53.576;9.980;2023-01-16T18:31:15;2.80;;;1.60;;
4309;SDS011;2168;53.576;9.980;2023-01-16T18:35:01;1.63;;;1.53;;
4309;SDS011;2168;53.576;9.980;2023-01-16T18:38:26;5.00;;;1.83;;
4309;SDS011;2168;53.576;9.980;2023-01-16T18:42:08;3.00;;;1.87;;
4309;SDS011;2168;53.576;9.980;2023-01-16T18:45:52;3.43;;;2.17;;
4309;SDS011;2168;53.576;9.980;2023-01-16T18:49:34;23.17;;;2.57;;
4309;SDS011;2168;53.576;9.980;2023-01-16T18:57:03;2.60;;;1.70;;
4309;SDS011;2168;53.576;9.980;2023-01-16T19:00:54;1.40;;;1.30;;
4309;SDS011;2168;53.576;9.980;2023-01-16T19:04:26;1.43;;;1.33;;
4309;SDS011;2168;53.576;9.980;2023-01-16T19:07:52;2.40;;;1.47;;
4309;SDS011;2168;53.576;9.980;2023-01-16T19:11:18;2.30;;;1.67;;
4309;SDS011;2168;53.576;9.980;2023-01-16T19:14:42;2.00;;;1.27;;
4309;SDS011;2168;53.576;9.980;2023-01-16T19:18:27;2.17;;;1.40;;
4309;SDS011;2168;53.576;9.980;2023-01-16T19:21:51;1.20;;;1.10;;
4309;SDS011;2168;53.576;9.980;2023-01-16T19:25:19;3.07;;;1.57;;
4309;SDS011;2168;53.576;9.980;2023-01-16T19:28:43;2.70;;;1.97;;
4309;SDS011;2168;53.576;9.980;2023-01-16T19:32:07;1.57;;;1.47;;
4309;SDS011;2168;53.576;9.980;2023-01-16T19:35:31;2.00;;;1.80;;
4309;SDS011;2168;53.576;9.980;2023-01-16T19:38:55;2.40;;;1.90;;
4309;SDS011;2168;53.576;9.980;2023-01-16T19:42:20;1.40;;;1.30;;
4309;SDS011;2168;53.576;9.980;2023-01-16T19:46:02;4.53;;;1.80;;
4309;SDS011;2168;53.576;9.980;2023-01-16T19:49:27;1.50;;;1.40;;
4309;SDS011;2168;53.576;9.980;2023-01-16T19:52:52;3.20;;;1.50;;
4309;SDS011;2168;53.576;9.980;2023-01-16T19:56:17;2.37;;;1.80;;
4309;SDS011;2168;53.576;9.980;2023-01-16T19:59:41;1.13;;;1.13;;
4309;SDS011;2168;53.576;9.980;2023-01-16T20:03:05;1.93;;;1.47;;
4309;SDS011;2168;53.576;9.980;2023-01-16T20:06:30;1.57;;;1.40;;
4309;SDS011;2168;53.576;9.980;2023-01-16T20:09:54;2.27;;;1.70;;
4309;SDS011;2168;53.576;9.980;2023-01-16T20:13:17;3.70;;;1.90;;
4309;SDS011;2168;53.576;9.980;2023-01-16T20:16:41;1.97;;;1.80;;
4309;SDS011;2168;53.576;9.980;2023-01-16T20:20:05;1.60;;;1.50;;
4309;SDS011;2168;53.576;9.980;2023-01-16T20:23:30;3.17;;;1.80;;
4309;SDS011;2168;53.576;9.980;2023-01-16T20:26:54;1.67;;;1.50;;
4309;SDS011;2168;53.576;9.980;2023-01-16T20:30:18;2.50;;;1.53;;
4309;SDS011;2168;53.576;9.980;2023-01-16T20:33:42;2.63;;;2.10;;
4309;SDS011;2168;53.576;9.980;2023-01-16T20:37:07;5.00;;;2.10;;
4309;SDS011;2168;53.576;9.980;2023-01-16T20:40:31;1.50;;;1.40;;
4309;SDS011;2168;53.576;9.980;2023-01-16T20:44:21;1.30;;;1.20;;
4309;SDS011;2168;53.576;9.980;2023-01-16T20:48:03;4.17;;;2.00;;
4309;SDS011;2168;53.576;9.980;2023-01-16T20:51:27;1.00;;;1.00;;
4309;SDS011;2168;53.576;9.980;2023-01-16T20:54:51;1.30;;;1.30;;
4309;SDS011;2168;53.576;9.980;2023-01-16T20:58:15;1.57;;;1.40;;
4309;SDS011;2168;53.576;9.980;2023-01-16T21:01:39;1.47;;;1.37;;
4309;SDS011;2168;53.576;9.980;2023-01-16T21:05:03;3.27;;;1.83;;
4309;SDS011;2168;53.576;9.980;2023-01-16T21:08:27;2.33;;;1.70;;
4309;SDS011;2168;53.576;9.980;2023-01-16T21:11:51;2.13;;;1.40;;
4309;SDS011;2168;53.576;9.980;2023-01-16T21:15:34;4.00;;;1.77;;
4309;SDS011;2168;53.576;9.980;2023-01-16T21:19:16;3.30;;;2.10;;
4309;SDS011;2168;53.576;9.980;2023-01-16T21:22:58;3.90;;;2.20;;
4309;SDS011;2168;53.576;9.980;2023-01-16T21:26:22;1.30;;;1.13;;
4309;SDS011;2168;53.576;9.980;2023-01-16T21:29:53;4.50;;;2.80;;
4309;SDS011;2168;53.576;9.980;2023-01-16T21:33:17;3.70;;;2.07;;
4309;SDS011;2168;53.576;9.980;2023-01-16T21:36:41;3.53;;;2.43;;
4309;SDS011;2168;53.576;9.980;2023-01-16T21:40:08;2.57;;;1.60;;
4309;SDS011;2168;53.576;9.980;2023-01-16T21:43:35;1.67;;;1.27;;
4309;SDS011;2168;53.576;9.980;2023-01-16T21:47:18;1.60;;;1.50;;
4309;SDS011;2168;53.576;9.980;2023-01-16T21:50:43;6.40;;;1.60;;
4309;SDS011;2168;53.576;9.980;2023-01-16T21:54:08;4.60;;;2.00;;
4309;SDS011;2168;53.576;9.980;2023-01-16T21:57:32;2.40;;;1.97;;
4309;SDS011;2168;53.576;9.980;2023-01-16T22:00:56;1.93;;;1.83;;
4309;SDS011;2168;53.576;9.980;2023-01-16T22:04:20;2.17;;;1.40;;
4309;SDS011;2168;53.576;9.980;2023-01-16T22:07:44;2.80;;;1.70;;
4309;SDS011;2168;53.576;9.980;2023-01-16T22:11:09;1.37;;;1.10;;
4309;SDS011;2168;53.576;9.980;2023-01-16T22:14:51;1.60;;;1.30;;
4309;SDS011;2168;53.576;9.980;2023-01-16T22:18:34;1.43;;;1.33;;
4309;SDS011;2168;53.576;9.980;2023-01-16T22:22:12;3.30;;;1.27;;
4309;SDS011;2168;53.576;9.980;2023-01-16T22:25:38;1.10;;;1.00;;
4309;SDS011;2168;53.576;9.980;2023-01-16T22:29:02;1.23;;;1.13;;
4309;SDS011;2168;53.576;9.980;2023-01-16T22:32:26;2.33;;;1.60;;
4309;SDS011;2168;53.576;9.980;2023-01-16T22:35:57;2.00;;;1.73;;
4309;SDS011;2168;53.576;9.980;2023-01-16T22:39:21;2.30;;;1.50;;
4309;SDS011;2168;53.576;9.980;2023-01-16T22:42:45;1.40;;;1.30;;
4309;SDS011;2168;53.576;9.980;2023-01-16T22:46:28;1.63;;;1.53;;
4309;SDS011;2168;53.576;9.980;2023-01-16T22:49:52;1.60;;;1.50;;
4309;SDS011;2168;53.576;9.980;2023-01-16T22:53:16;2.27;;;1.50;;
4309;SDS011;2168;53.576;9.980;2023-01-16T22:56:40;1.27;;;1.20;;
4309;SDS011;2168;53.576;9.980;2023-01-16T23:00:04;3.30;;;1.40;;
4309;SDS011;2168;53.576;9.980;2023-01-16T23:03:32;2.53;;;1.20;;
4309;SDS011;2168;53.576;9.980;2023-01-16T23:06:56;1.80;;;1.70;;
4309;SDS011;2168;53.576;9.980;2023-01-16T23:10:21;1.80;;;1.50;;
4309;SDS011;2168;53.576;9.980;2023-01-16T23:14:06;1.97;;;1.77;;
4309;SDS011;2168;53.576;9.980;2023-01-16T23:17:31;1.47;;;1.30;;
4309;SDS011;2168;53.576;9.980;2023-01-16T23:20:56;2.10;;;1.50;;
4309;SDS011;2168;53.576;9.980;2023-01-16T23:24:21;1.67;;;1.30;;
4309;SDS011;2168;53.576;9.980;2023-01-16T23:27:46;1.80;;;1.37;;
4309;SDS011;2168;53.576;9.980;2023-01-16T23:31:14;1.50;;;1.13;;
4309;SDS011;2168;53.576;9.980;2023-01-16T23:34:38;1.70;;;1.60;;
4309;SDS011;2168;53.576;9.980;2023-01-16T23:38:02;1.60;;;1.50;;
4309;SDS011;2168;53.576;9.980;2023-01-16T23:41:28;2.70;;;1.80;;
4309;SDS011;2168;53.576;9.980;2023-01-16T23:45:11;3.00;;;1.40;;